Time;durP1;ratioP1;P1;durP2;ratioP2;P2;SDS_P1;SDS_P2;PMS_P1;PMS_P2;Temp;Humidity;BMP_temperature;BMP_pressure;BME280_temperature;BME280_humidity;BME280_pressure;Samples;Min_cycle;Max_cycle;Signal;HPM_P1;HPM_P2
2021/05/29 00:02:03;;;;;;;19.67;13.67;;;;;;;15.77;93.11;99997.77;1746117;80;21399;-69
2021/05/29 00:04:30;;;;;;;15.67;12.23;;;;;;;15.76;92.96;99993.49;1744633;80;21084;-70
2021/05/29 00:06:56;;;;;;;18.10;13.20;;;;;;;15.74;92.73;99994.34;1742106;80;22373;-69
2021/05/29 00:09:23;;;;;;;16.57;13.17;;;;;;;15.70;92.55;99996.05;1742008;80;21144;-69
2021/05/29 00:11:52;;;;;;;16.90;14.20;;;;;;;15.69;92.45;99988.53;1729979;80;21113;-70
2021/05/29 00:14:19;;;;;;;17.90;15.77;;;;;;;15.65;92.24;99994.23;1738195;80;21050;-70
2021/05/29 00:16:48;;;;;;;20.60;16.50;;;;;;;15.63;92.15;99988.89;1739027;80;21129;-71
2021/05/29 00:19:15;;;;;;;19.80;16.30;;;;;;;15.63;92.15;99988.89;1739977;80;21069;-72
2021/05/29 00:21:42;;;;;;;19.50;16.90;;;;;;;15.64;92.35;99981.88;1740887;80;21092;-70
2021/05/29 00:24:10;;;;;;;20.07;16.93;;;;;;;15.69;92.10;99984.49;1740874;80;21608;-69
2021/05/29 00:26:36;;;;;;;21.40;17.40;;;;;;;15.71;91.95;99987.66;1741636;80;21132;-70
2021/05/29 00:29:03;;;;;;;19.83;16.87;;;;;;;15.68;91.77;99984.78;1737071;80;21426;-70
2021/05/29 00:31:31;;;;;;;20.87;16.70;;;;;;;15.67;91.76;99987.23;1724919;80;21194;-69
2021/05/29 00:33:58;;;;;;;18.47;16.10;;;;;;;15.72;91.78;99977.67;1736889;80;21661;-70
2021/05/29 00:36:25;;;;;;;21.20;15.90;;;;;;;15.78;91.71;99976.46;1742381;80;21050;-69
2021/05/29 00:38:52;;;;;;;18.90;15.50;;;;;;;15.81;91.49;99973.72;1737462;81;21098;-70
2021/05/29 00:41:19;;;;;;;16.77;14.20;;;;;;;15.85;91.27;99968.75;1731857;80;21046;-70
2021/05/29 00:43:46;;;;;;;16.43;13.93;;;;;;;15.86;91.10;99972.23;1735060;80;21106;-70
2021/05/29 00:46:13;;;;;;;16.47;13.07;;;;;;;15.84;90.91;99965.81;1743786;80;21116;-71
2021/05/29 00:48:41;;;;;;;12.73;11.00;;;;;;;15.82;90.78;99965.88;1729306;80;21140;-69
2021/05/29 00:51:08;;;;;;;12.40;10.00;;;;;;;15.76;90.64;99962.53;1737757;80;21654;-70
2021/05/29 00:53:37;;;;;;;13.80;11.30;;;;;;;15.69;90.58;99964.30;1734322;80;21104;-70
2021/05/29 00:56:07;;;;;;;15.13;12.03;;;;;;;15.64;90.59;99963.58;1738555;80;21798;-69
2021/05/29 00:58:34;;;;;;;13.37;10.80;;;;;;;15.65;90.64;99957.09;1732609;80;21919;-70
2021/05/29 01:01:01;;;;;;;18.53;12.83;;;;;;;15.68;90.66;99959.20;1732480;81;21081;-68
2021/05/29 01:03:29;;;;;;;14.50;12.37;;;;;;;15.65;90.53;99953.84;1739010;80;21132;-69
2021/05/29 01:05:56;;;;;;;18.37;12.07;;;;;;;15.66;90.48;99950.10;1738520;80;21578;-69
2021/05/29 01:08:25;;;;;;;15.03;12.10;;;;;;;15.64;90.49;99955.51;1743666;80;21077;-69
2021/05/29 01:10:53;;;;;;;14.47;12.73;;;;;;;15.62;90.52;99946.38;1747022;80;21057;-68
2021/05/29 01:13:27;;;;;;;15.90;13.67;;;;;;;15.65;90.69;99944.42;1732921;80;21619;-69
2021/05/29 01:15:50;;;;;;;16.43;14.37;;;;;;;15.65;90.69;99944.42;1735282;80;21097;-70
2021/05/29 01:18:19;;;;;;;17.20;13.73;;;;;;;15.71;90.73;99942.44;1746332;80;21116;-70
2021/05/29 01:20:46;;;;;;;17.23;14.43;;;;;;;15.76;90.69;99944.20;1744636;80;21029;-69
2021/05/29 01:23:14;;;;;;;17.53;14.67;;;;;;;15.78;90.71;99944.70;1725868;79;21129;-69
2021/05/29 01:25:46;;;;;;;16.57;14.77;;;;;;;15.81;90.74;99936.02;1739910;80;21750;-69
2021/05/29 01:28:24;;;;;;;20.03;16.77;;;;;;;15.86;90.73;99938.56;1736227;80;21678;-69
2021/05/29 01:31:00;;;;;;;21.73;17.37;;;;;;;15.85;90.64;99936.98;1741358;81;21149;-68
2021/05/29 01:33:34;;;;;;;22.20;18.47;;;;;;;15.81;90.63;99925.25;1736768;80;21613;-71
2021/05/29 01:36:06;;;;;;;20.47;17.47;;;;;;;15.84;90.75;99920.59;1736496;80;21172;-68
2021/05/29 01:38:35;;;;;;;20.97;17.30;;;;;;;15.85;90.80;99915.44;1739235;80;21113;-69
2021/05/29 01:41:13;;;;;;;21.93;17.77;;;;;;;15.85;90.80;99909.50;1740822;81;21021;-70
2021/05/29 01:43:45;;;;;;;21.80;16.83;;;;;;;15.88;90.93;99918.31;1738038;80;21631;-69
2021/05/29 01:46:15;;;;;;;22.60;17.77;;;;;;;15.91;90.80;99913.66;1736536;80;21046;-69
2021/05/29 01:48:47;;;;;;;25.43;21.43;;;;;;;15.92;90.83;99915.80;1739057;80;21224;-70
2021/05/29 01:51:16;;;;;;;26.50;21.80;;;;;;;15.93;90.77;99917.41;1740162;82;21556;-69
2021/05/29 01:53:42;;;;;;;27.70;23.27;;;;;;;15.88;90.76;99912.14;1718177;80;28343;-69
2021/05/29 01:56:09;;;;;;;28.47;22.63;;;;;;;15.88;90.92;99914.83;1743967;80;22448;-69
2021/05/29 01:58:37;;;;;;;27.27;21.57;;;;;;;15.86;91.02;99920.54;1674217;83;21085;-69
2021/05/29 02:01:08;;;;;;;25.20;19.80;;;;;;;15.81;91.24;99917.17;1737219;80;21081;-71
2021/05/29 02:03:38;;;;;;;24.52;20.72;;;;;;;15.73;91.62;99919.23;1721168;80;21188;-69
2021/05/29 02:06:05;;;;;;;23.03;19.20;;;;;;;15.66;92.02;99919.14;1737271;80;21109;-69
2021/05/29 02:08:32;;;;;;;25.83;20.20;;;;;;;15.60;92.35;99923.02;1743540;80;21081;-69
2021/05/29 02:11:00;;;;;;;23.87;17.83;;;;;;;15.55;92.75;99922.34;1736076;80;21078;-69
2021/05/29 02:13:35;;;;;;;25.77;21.00;;;;;;;15.49;93.09;99919.75;1720063;82;21081;-69
2021/05/29 02:16:02;;;;;;;29.30;22.27;;;;;;;15.46;93.38;99928.47;1736911;80;21149;-69
2021/05/29 02:18:30;;;;;;;27.47;21.30;;;;;;;15.46;93.70;99927.64;1702162;82;21111;-71
2021/05/29 02:21:04;;;;;;;29.10;21.23;;;;;;;15.48;94.00;99920.07;1736589;80;21009;-70
2021/05/29 02:23:35;;;;;;;28.17;21.80;;;;;;;15.50;94.20;99921.92;1742073;80;21560;-68
2021/05/29 02:26:12;;;;;;;29.32;21.65;;;;;;;15.50;94.38;99917.88;1735834;80;21138;-68
2021/05/29 02:28:41;;;;;;;27.67;21.70;;;;;;;15.51;94.54;99918.12;1742977;80;21081;-69
2021/05/29 02:31:09;;;;;;;28.60;20.00;;;;;;;15.51;94.68;99918.12;1750501;80;21551;-69
2021/05/29 02:33:37;;;;;;;23.27;19.23;;;;;;;15.49;94.71;99923.00;1736859;80;21144;-70
2021/05/29 02:36:05;;;;;;;24.33;19.17;;;;;;;15.48;94.80;99921.42;1734583;81;21671;-70
2021/05/29 02:38:35;;;;;;;23.10;18.10;;;;;;;15.48;94.89;99920.86;1739374;80;21117;-70
2021/05/29 02:41:07;;;;;;;24.10;18.13;;;;;;;15.51;94.90;99915.42;1743254;80;21041;-69
2021/05/29 02:43:35;;;;;;;22.80;17.97;;;;;;;15.54;94.91;99920.20;1747474;80;21149;-69
2021/05/29 02:46:01;;;;;;;22.83;18.63;;;;;;;15.55;94.87;99919.09;1736275;80;21001;-70
2021/05/29 02:48:28;;;;;;;22.00;17.90;;;;;;;15.60;94.96;99923.02;1741044;80;21148;-70
2021/05/29 02:50:55;;;;;;;17.50;13.87;;;;;;;15.69;95.00;99919.88;1742301;80;21709;-70
2021/05/29 02:53:21;;;;;;;19.30;15.33;;;;;;;15.74;94.81;99920.84;1743095;81;21157;-70
2021/05/29 02:55:48;;;;;;;19.93;15.80;;;;;;;15.78;94.69;99913.73;1732447;80;21125;-70
2021/05/29 02:58:15;;;;;;;21.37;16.00;;;;;;;15.81;94.54;99914.47;1743018;80;21603;-70
2021/05/29 03:00:46;;;;;;;19.80;16.20;;;;;;;15.79;94.29;99916.11;1733612;80;21103;-69
2021/05/29 03:03:13;;;;;;;21.73;16.40;;;;;;;15.81;94.21;99909.09;1704684;82;21098;-70
2021/05/29 03:05:44;;;;;;;22.80;14.77;;;;;;;15.87;94.09;99902.48;1757319;80;21105;-70
2021/05/29 03:08:13;;;;;;;19.53;14.97;;;;;;;15.96;93.92;99906.02;1741848;80;20970;-69
2021/05/29 03:10:41;;;;;;;19.30;15.47;;;;;;;15.96;93.60;99900.63;1727725;80;21116;-68
2021/05/29 03:13:11;;;;;;;19.67;15.20;;;;;;;15.98;93.36;99903.80;1730694;80;21029;-69
2021/05/29 03:15:38;;;;;;;16.53;13.90;;;;;;;15.98;93.18;99897.06;1732292;80;21230;-69
2021/05/29 03:18:08;;;;;;;19.67;14.30;;;;;;;16.00;93.04;99894.86;1741224;80;21628;-69
2021/05/29 03:20:35;;;;;;;18.20;14.13;;;;;;;16.00;92.95;99898.91;1717989;80;21081;-69
2021/05/29 03:23:04;;;;;;;18.13;14.17;;;;;;;16.04;92.92;99903.91;1739290;80;21550;-71
2021/05/29 03:25:31;;;;;;;18.20;14.53;;;;;;;16.11;92.86;99907.52;1743850;80;21073;-69
2021/05/29 03:27:58;;;;;;;16.60;14.07;;;;;;;16.16;92.73;99905.48;1730583;80;21089;-69
2021/05/29 03:30:26;;;;;;;17.30;13.23;;;;;;;16.23;92.56;99915.03;1734926;80;21081;-71
2021/05/29 03:32:53;;;;;;;17.87;12.93;;;;;;;16.27;92.27;99911.39;1734132;80;21631;-70
2021/05/29 03:35:20;;;;;;;17.07;13.20;;;;;;;16.29;91.96;99909.75;1744509;80;21103;-70
2021/05/29 03:37:47;;;;;;;16.20;12.97;;;;;;;16.31;91.71;99905.62;1727352;80;21101;-69
2021/05/29 03:40:16;;;;;;;16.20;12.40;;;;;;;16.37;91.64;99911.11;1742926;80;21798;-69
2021/05/29 03:42:44;;;;;;;16.53;13.23;;;;;;;16.45;91.44;99902.02;1736786;80;21652;-70
2021/05/29 03:45:13;;;;;;;16.90;12.23;;;;;;;16.46;91.11;99897.68;1738697;80;21051;-69
2021/05/29 03:47:41;;;;;;;18.23;12.93;;;;;;;16.50;90.93;99898.64;1762704;80;21135;-69
2021/05/29 03:50:10;;;;;;;14.63;11.90;;;;;;;16.57;90.77;99898.19;1745555;80;21054;-69
2021/05/29 03:52:36;;;;;;;14.70;11.73;;;;;;;16.65;90.54;99905.52;1732981;80;21092;-70
2021/05/29 03:55:04;;;;;;;13.90;10.70;;;;;;;16.71;90.28;99893.45;1740995;80;21078;-70
2021/05/29 03:57:31;;;;;;;14.97;11.33;;;;;;;16.79;89.91;99903.51;1756433;80;21033;-69
2021/05/29 03:59:58;;;;;;;14.53;11.20;;;;;;;16.85;89.50;99898.77;1737923;80;21038;-70
2021/05/29 04:02:25;;;;;;;15.33;11.13;;;;;;;16.91;89.25;99901.53;1741450;80;20959;-69
2021/05/29 04:04:53;;;;;;;12.47;10.63;;;;;;;17.01;88.90;99903.13;1738064;80;21098;-70
2021/05/29 04:07:21;;;;;;;15.93;10.73;;;;;;;17.12;88.68;99903.08;1746312;80;20930;-70
2021/05/29 04:09:48;;;;;;;11.03;9.23;;;;;;;17.23;88.54;99907.61;1735086;80;21088;-69
2021/05/29 04:12:15;;;;;;;12.23;10.20;;;;;;;17.32;87.80;99912.45;1752815;79;21940;-70
2021/05/29 04:14:44;;;;;;;11.70;10.07;;;;;;;17.32;87.45;99912.45;1729896;80;21050;-70
2021/05/29 04:17:13;;;;;;;11.53;9.20;;;;;;;17.27;86.93;99912.59;1739499;80;21862;-70
2021/05/29 04:19:41;;;;;;;12.10;10.13;;;;;;;17.19;86.64;99912.84;1744133;80;21069;-70
2021/05/29 04:22:08;;;;;;;11.03;9.87;;;;;;;17.11;86.28;99926.58;1737476;80;21552;-70
2021/05/29 04:24:37;;;;;;;11.37;10.17;;;;;;;17.08;86.23;99920.46;1742819;80;21081;-69
2021/05/29 04:27:05;;;;;;;10.53;9.23;;;;;;;17.06;86.31;99926.72;1734944;80;21632;-70
2021/05/29 04:29:32;;;;;;;13.67;11.33;;;;;;;17.04;86.00;99922.73;1741235;80;21762;-69
2021/05/29 04:32:00;;;;;;;15.33;11.63;;;;;;;16.97;85.80;99926.46;1736037;80;21662;-70
2021/05/29 04:34:27;;;;;;;13.37;11.97;;;;;;;16.92;85.98;99920.67;1736677;80;21061;-70
2021/05/29 04:36:54;;;;;;;13.23;11.83;;;;;;;16.85;86.13;99926.53;1740635;80;21006;-71
2021/05/29 04:39:20;;;;;;;13.37;11.73;;;;;;;16.84;86.29;99924.92;1739436;80;21072;-70
2021/05/29 04:41:47;;;;;;;13.23;11.83;;;;;;;16.86;86.47;99919.23;1740755;80;21287;-69
2021/05/29 04:44:14;;;;;;;14.27;12.77;;;;;;;16.90;86.61;99925.58;1734882;80;21693;-70
2021/05/29 04:46:49;;;;;;;13.53;11.77;;;;;;;16.95;86.75;99923.30;1741379;80;21086;-70
2021/05/29 04:49:09;;;;;;;14.33;12.07;;;;;;;16.97;86.55;99929.16;1735494;80;21117;-70
2021/05/29 04:51:36;;;;;;;13.93;10.87;;;;;;;17.00;86.33;99931.23;1744694;80;21695;-70
2021/05/29 04:54:03;;;;;;;15.80;12.33;;;;;;;16.98;86.11;99924.81;1738483;80;21443;-69
2021/05/29 04:56:31;;;;;;;13.13;11.23;;;;;;;16.94;86.10;99926.53;1735154;81;21092;-69
2021/05/29 04:58:59;;;;;;;14.23;11.37;;;;;;;16.94;86.06;99928.44;1715009;80;21064;-70
2021/05/29 05:01:29;;;;;;;14.93;11.47;;;;;;;16.95;86.04;99930.05;1735219;80;21074;-70
2021/05/29 05:03:54;;;;;;;13.03;11.00;;;;;;;16.99;86.07;99925.60;1742843;80;21785;-70
2021/05/29 05:06:21;;;;;;;12.50;10.90;;;;;;;17.06;86.12;99932.67;1740857;80;21218;-70
2021/05/29 05:08:48;;;;;;;11.97;10.37;;;;;;;17.10;85.64;99931.71;1738670;80;21073;-70
2021/05/29 05:11:16;;;;;;;11.37;9.80;;;;;;;17.11;85.49;99936.58;1743246;80;21085;-71
2021/05/29 05:13:45;;;;;;;12.07;9.40;;;;;;;17.15;85.36;99938.09;1742541;81;21092;-68
2021/05/29 05:16:13;;;;;;;9.20;8.13;;;;;;;17.13;85.07;99939.73;1730375;80;21125;-69
2021/05/29 05:18:40;;;;;;;5.33;3.73;;;;;;;17.09;84.85;99939.58;1711017;81;21119;-70
2021/05/29 05:21:09;;;;;;;6.07;3.20;;;;;;;17.01;83.91;99948.47;1740663;80;21112;-70
2021/05/29 05:23:36;;;;;;;5.23;2.93;;;;;;;16.88;82.91;99946.70;1742352;80;21030;-70
2021/05/29 05:26:04;;;;;;;5.90;3.10;;;;;;;16.76;82.65;99946.49;1741564;80;21028;-70
2021/05/29 05:28:30;;;;;;;4.47;2.73;;;;;;;16.65;82.54;99959.44;1732622;81;21011;-71
2021/05/29 05:31:02;;;;;;;4.83;3.40;;;;;;;16.49;82.65;99950.97;1738926;80;21101;-71
2021/05/29 05:33:29;;;;;;;6.23;3.37;;;;;;;16.35;83.01;99962.37;1739998;80;21077;-71
2021/05/29 05:35:55;;;;;;;6.63;3.63;;;;;;;16.21;83.26;99957.64;1737903;80;21108;-70
2021/05/29 05:38:23;;;;;;;5.63;3.63;;;;;;;16.17;83.77;99964.20;1764118;80;21611;-70
2021/05/29 05:40:52;;;;;;;5.07;3.20;;;;;;;16.12;84.05;99960.28;1738032;80;21095;-71
2021/05/29 05:43:19;;;;;;;4.67;3.30;;;;;;;16.07;84.10;99967.95;1741708;80;21137;-73
2021/05/29 05:45:45;;;;;;;5.00;3.20;;;;;;;16.02;84.27;99978.84;1760646;80;21135;-71
2021/05/29 05:48:12;;;;;;;5.07;3.37;;;;;;;15.95;84.47;99969.05;1739771;80;20977;-70
2021/05/29 05:50:51;;;;;;;6.73;3.57;;;;;;;15.87;84.82;99963.86;1736549;80;21674;-70
2021/05/29 05:53:07;;;;;;;5.70;3.17;;;;;;;15.84;85.07;99972.55;1742653;80;21042;-70
2021/05/29 05:55:37;;;;;;;4.40;3.30;;;;;;;15.79;85.24;99975.35;1737563;80;21120;-72
2021/05/29 05:58:07;;;;;;;4.97;3.57;;;;;;;15.75;85.49;99968.99;1738611;80;21179;-71
2021/05/29 06:00:40;;;;;;;4.20;2.97;;;;;;;15.71;85.64;99975.54;1733409;80;21140;-70
2021/05/29 06:03:13;;;;;;;5.20;3.57;;;;;;;15.71;85.81;99980.14;1703349;81;21135;-72
2021/05/29 06:05:58;;;;;;;6.37;4.17;;;;;;;15.69;85.97;99989.05;1699576;81;21109;-71
2021/05/29 06:08:25;;;;;;;6.53;5.13;;;;;;;15.62;85.95;99992.70;1714481;82;21080;-73
2021/05/29 06:11:02;;;;;;;8.37;7.00;;;;;;;15.55;86.21;99990.42;1695716;82;21069;-74
2021/05/29 06:21:26;;;;;;;5.50;3.20;;;;;;;15.47;87.12;99993.84;1717248;80;21115;-74
2021/05/29 06:23:52;;;;;;;6.35;3.15;;;;;;;15.49;86.46;99985.69;1740194;80;21152;-70
2021/05/29 06:26:24;;;;;;;7.07;3.70;;;;;;;15.54;85.97;99988.84;1733823;80;21085;-73
2021/05/29 06:28:52;;;;;;;4.43;2.73;;;;;;;15.56;85.61;99987.97;1706547;80;21088;-71
2021/05/29 06:31:21;;;;;;;3.47;2.93;;;;;;;15.59;85.37;99998.12;1734405;80;21176;-71
2021/05/29 06:33:55;;;;;;;7.40;3.35;;;;;;;15.62;84.77;99992.70;1730369;80;21585;-75
2021/05/29 06:36:26;;;;;;;4.00;3.40;;;;;;;15.63;84.58;100003.70;1719118;80;21643;-72
2021/05/29 06:38:53;;;;;;;4.78;3.30;;;;;;;15.66;84.26;100002.59;1734495;80;21072;-72
2021/05/29 06:41:23;;;;;;;4.37;3.07;;;;;;;15.67;83.96;100005.53;1739399;80;21105;-72
2021/05/29 06:43:56;;;;;;;4.28;2.25;;;;;;;15.68;83.87;100005.77;1742543;80;22017;-72
2021/05/29 06:46:23;;;;;;;4.35;2.20;;;;;;;15.71;83.40;100009.20;1716415;81;22395;-70
2021/05/29 06:48:53;;;;;;;4.67;2.40;;;;;;;15.79;83.04;100000.14;1734420;80;21785;-71
2021/05/29 06:54:18;;;;;;;5.73;2.17;;;;;;;16.00;82.26;100004.52;1739553;80;21124;-72
2021/05/29 06:59:30;;;;;;;2.80;1.77;;;;;;;16.33;80.88;100000.44;1736789;80;21121;-74
2021/05/29 07:01:58;;;;;;;2.70;1.80;;;;;;;16.50;80.37;99997.59;1691787;80;21208;-70
2021/05/29 07:04:30;;;;;;;3.70;2.03;;;;;;;16.56;79.35;99997.70;1745895;80;21171;-74
2021/05/29 07:07:08;;;;;;;3.40;1.93;;;;;;;16.54;78.94;99999.34;1755926;80;21084;-71
2021/05/29 07:09:57;;;;;;;4.40;2.07;;;;;;;16.50;78.67;100006.47;1712514;80;21054;-72
2021/05/29 07:12:21;;;;;;;2.70;1.80;;;;;;;16.45;79.04;100013.33;1704978;81;21667;-69
2021/05/29 07:15:10;;;;;;;2.43;1.60;;;;;;;16.45;79.35;100006.59;1736325;80;21124;-71
2021/05/29 07:17:55;;;;;;;3.07;1.97;;;;;;;16.48;79.58;100011.92;1686007;82;21155;-74
2021/05/29 07:20:48;;;;;;;3.30;2.00;;;;;;;16.55;79.60;100013.61;1692442;81;21076;-72
2021/05/29 07:23:05;;;;;;;2.67;1.67;;;;;;;16.66;79.48;100016.30;1694370;82;21105;-71
2021/05/29 07:25:32;;;;;;;3.20;1.87;;;;;;;16.82;79.36;100011.33;1707711;82;21263;-70
2021/05/29 07:28:00;;;;;;;6.10;2.10;;;;;;;16.95;78.52;100022.55;1701229;82;21113;-72
2021/05/29 07:30:29;;;;;;;2.77;1.97;;;;;;;17.01;77.19;100017.80;1696395;82;21599;-73
2021/05/29 07:32:59;;;;;;;3.13;1.70;;;;;;;17.02;76.43;100014.01;1687351;82;21132;-71
2021/05/29 07:35:30;;;;;;;2.57;1.80;;;;;;;17.03;75.78;100010.98;1704282;82;21698;-73
2021/05/29 07:37:56;;;;;;;3.30;1.90;;;;;;;17.08;75.29;100015.45;1713729;82;21089;-71
2021/05/29 07:40:24;;;;;;;2.90;1.60;;;;;;;17.13;75.04;100021.25;1706231;82;21893;-71
2021/05/29 07:42:51;;;;;;;3.20;1.80;;;;;;;17.19;73.78;100015.39;1708727;82;21116;-71
2021/05/29 07:45:21;;;;;;;2.40;1.70;;;;;;;17.21;72.85;100021.28;1710023;82;21177;-73
2021/05/29 07:47:49;;;;;;;3.17;1.52;;;;;;;17.28;72.59;100008.67;1716732;82;21021;-70
2021/05/29 07:50:17;;;;;;;2.80;1.43;;;;;;;17.41;71.54;100005.05;1703727;82;21151;-71
2021/05/29 07:52:46;;;;;;;3.83;1.60;;;;;;;17.53;70.96;99998.44;1720824;82;21108;-75
2021/05/29 07:55:14;;;;;;;1.93;1.50;;;;;;;17.67;70.70;100009.11;1697817;82;21120;-71
2021/05/29 07:57:41;;;;;;;3.90;1.40;;;;;;;17.86;70.49;100002.61;1706482;82;21141;-71
2021/05/29 08:00:12;;;;;;;2.40;1.50;;;;;;;18.08;69.01;100009.19;1707101;82;21116;-71
2021/05/29 08:02:39;;;;;;;3.93;1.73;;;;;;;18.22;68.24;100007.64;1707881;82;21140;-71
2021/05/29 08:05:15;;;;;;;5.67;1.90;;;;;;;18.37;68.36;100009.84;1705319;82;21710;-72
2021/05/29 08:07:35;;;;;;;2.93;1.90;;;;;;;18.57;68.59;100015.11;1707981;82;21653;-71
2021/05/29 08:10:03;;;;;;;3.70;1.97;;;;;;;18.77;69.01;100004.73;1708920;82;21418;-71
2021/05/29 08:12:31;;;;;;;4.03;1.60;;;;;;;18.95;69.05;100007.57;1709147;82;21084;-72
2021/05/29 08:14:59;;;;;;;3.57;1.73;;;;;;;19.05;66.78;100010.47;1689701;82;21658;-70
2021/05/29 08:17:26;;;;;;;4.43;1.93;;;;;;;18.98;66.19;100025.30;1708568;82;21081;-71
2021/05/29 08:19:53;;;;;;;3.47;1.63;;;;;;;18.83;66.50;100015.61;1711444;82;21124;-71
2021/05/29 08:22:19;;;;;;;3.53;1.70;;;;;;;18.66;66.53;100017.23;1705322;82;21088;-70
2021/05/29 08:24:47;;;;;;;2.70;1.60;;;;;;;18.48;67.03;100026.52;1705403;82;21805;-71
2021/05/29 08:27:18;;;;;;;3.20;1.67;;;;;;;18.32;67.25;100030.28;1715083;82;21467;-72
2021/05/29 08:29:45;;;;;;;2.92;1.98;;;;;;;18.15;67.47;100046.53;1704937;82;28439;-71
2021/05/29 08:32:12;;;;;;;3.63;1.83;;;;;;;17.98;67.84;100046.79;1710884;82;21112;-73
2021/05/29 08:34:40;;;;;;;4.63;2.00;;;;;;;17.82;68.21;100032.17;1702073;82;21168;-72
2021/05/29 08:37:08;;;;;;;4.93;2.03;;;;;;;17.75;68.32;100035.88;1708787;82;21105;-73
2021/05/29 08:39:35;;;;;;;4.03;2.10;;;;;;;17.74;68.75;100032.38;1710780;82;21228;-70
2021/05/29 08:42:06;;;;;;;3.97;2.37;;;;;;;17.86;68.59;100048.53;1672469;83;22610;-71
2021/05/29 08:44:33;;;;;;;5.90;2.27;;;;;;;18.02;67.65;100033.43;1714606;82;21104;-72
2021/05/29 08:47:02;;;;;;;3.57;2.10;;;;;;;18.18;67.08;100049.95;1708355;82;21164;-70
2021/05/29 08:49:29;;;;;;;3.50;2.17;;;;;;;18.32;66.84;100045.71;1698435;82;21160;-71
2021/05/29 08:52:00;;;;;;;2.93;1.73;;;;;;;18.44;66.35;100043.94;1703633;82;21096;-70
2021/05/29 08:54:30;;;;;;;4.17;2.10;;;;;;;18.53;66.37;100044.49;1704299;82;21105;-70
2021/05/29 08:56:57;;;;;;;3.63;2.00;;;;;;;18.56;66.03;100052.75;1702938;82;21101;-70
2021/05/29 08:59:25;;;;;;;3.50;1.97;;;;;;;18.55;65.45;100056.55;1706660;82;21109;-70
2021/05/29 09:01:54;;;;;;;6.07;2.60;;;;;;;18.47;65.32;100052.77;1708615;82;21092;-71
2021/05/29 09:04:21;;;;;;;5.70;2.07;;;;;;;18.32;65.30;100046.50;1704453;82;21121;-69
2021/05/29 09:06:48;;;;;;;2.70;1.93;;;;;;;18.14;65.70;100048.45;1703201;82;21900;-71
2021/05/29 09:09:16;;;;;;;2.80;1.90;;;;;;;17.95;66.12;100055.53;1707527;82;21774;-71
2021/05/29 09:11:51;;;;;;;4.93;2.63;;;;;;;17.81;67.24;100061.09;1702044;82;21144;-69
2021/05/29 09:14:35;;;;;;;4.27;2.23;;;;;;;17.75;67.99;100053.44;1697867;82;21093;-70
2021/05/29 09:17:25;;;;;;;4.53;2.60;;;;;;;17.73;68.17;100065.10;1707465;82;21453;-69
2021/05/29 09:20:08;;;;;;;4.03;2.20;;;;;;;17.79;68.01;100061.16;1704464;82;21120;-70
2021/05/29 09:22:42;;;;;;;4.13;2.40;;;;;;;17.89;67.57;100064.91;1700250;82;21802;-70
2021/05/29 09:25:15;;;;;;;4.40;2.30;;;;;;;17.94;67.41;100059.35;1706492;82;21113;-71
2021/05/29 09:27:58;;;;;;;4.80;2.50;;;;;;;17.98;66.93;100060.86;1703729;82;21133;-71
2021/05/29 09:30:43;;;;;;;3.90;2.47;;;;;;;17.98;66.54;100066.27;1703198;82;21677;-70
2021/05/29 09:33:18;;;;;;;3.60;2.23;;;;;;;17.96;66.15;100065.22;1707306;82;21636;-70
2021/05/29 09:36:09;;;;;;;4.63;2.40;;;;;;;17.99;66.29;100069.98;1708122;82;21123;-69
2021/05/29 09:38:43;;;;;;;4.35;2.60;;;;;;;18.02;66.04;100066.65;1705524;82;21156;-70
2021/05/29 09:41:28;;;;;;;4.83;2.23;;;;;;;18.02;65.97;100057.19;1700864;82;21049;-70
2021/05/29 09:44:04;;;;;;;3.13;2.10;;;;;;;18.11;66.61;100065.30;1715032;82;21101;-68
2021/05/29 09:46:41;;;;;;;4.00;2.73;;;;;;;18.22;66.29;100063.06;1705550;82;21560;-69
2021/05/29 09:49:08;;;;;;;4.80;2.53;;;;;;;18.26;65.45;100062.65;1676606;82;21523;-70
2021/05/29 09:51:34;;;;;;;4.83;2.53;;;;;;;18.31;65.28;100060.36;1707997;82;21131;-70
2021/05/29 09:54:09;;;;;;;4.73;2.50;;;;;;;18.36;65.05;100061.52;1709958;81;21120;-69
2021/05/29 09:56:43;;;;;;;5.90;2.40;;;;;;;18.42;64.61;100058.89;1709231;82;21104;-69
2021/05/29 09:59:13;;;;;;;5.30;2.50;;;;;;;18.56;64.46;100069.52;1708389;82;21415;-71
2021/05/29 10:01:54;;;;;;;4.50;2.27;;;;;;;18.76;63.56;100061.32;1713563;82;21084;-69
2021/05/29 10:04:39;;;;;;;4.40;2.23;;;;;;;18.98;63.33;100055.07;1682387;82;21154;-69
2021/05/29 10:07:13;;;;;;;5.17;2.10;;;;;;;19.28;62.90;100059.17;1706785;82;21112;-69
2021/05/29 10:09:41;;;;;;;3.57;2.10;;;;;;;19.44;62.05;100050.68;1711427;82;21092;-69
2021/05/29 10:12:10;;;;;;;6.07;2.50;;;;;;;19.55;62.39;100048.97;1708106;82;21088;-69
2021/05/29 10:14:39;;;;;;;5.50;2.30;;;;;;;19.63;61.95;100050.27;1708897;82;21160;-69
2021/05/29 10:17:12;;;;;;;4.37;2.10;;;;;;;19.59;61.50;100062.87;1708446;82;21864;-70
2021/05/29 10:19:43;;;;;;;3.90;2.40;;;;;;;19.42;60.86;100073.26;1706911;82;21132;-69
2021/05/29 10:22:15;;;;;;;4.40;2.50;;;;;;;19.24;61.28;100071.75;1702387;82;21180;-69
2021/05/29 10:24:44;;;;;;;3.33;2.10;;;;;;;19.11;61.94;100072.21;1706879;82;21096;-71
2021/05/29 10:27:23;;;;;;;4.43;2.30;;;;;;;19.06;62.12;100064.29;1670123;83;21082;-69
2021/05/29 10:29:47;;;;;;;4.27;2.17;;;;;;;19.04;62.20;100081.41;1715558;82;21137;-70
2021/05/29 10:32:19;;;;;;;4.10;2.50;;;;;;;19.03;61.33;100080.39;1683512;82;21097;-68
2021/05/29 10:35:05;;;;;;;7.22;2.40;;;;;;;18.92;61.00;100072.63;1705030;82;21125;-71
2021/05/29 10:37:43;;;;;;;3.80;2.70;;;;;;;18.85;61.76;100077.73;1712174;82;21160;-69
2021/05/29 10:40:24;;;;;;;5.43;2.40;;;;;;;18.88;62.13;100063.55;1723678;81;21711;-70
2021/05/29 10:43:14;;;;;;;4.00;2.17;;;;;;;18.96;62.16;100072.21;1706928;82;21164;-69
2021/05/29 10:45:55;;;;;;;4.40;2.50;;;;;;;19.04;61.58;100065.73;1710706;82;21101;-69
2021/05/29 10:48:24;;;;;;;4.95;2.25;;;;;;;19.11;62.01;100070.06;1713092;82;21179;-69
2021/05/29 10:53:53;;;;;;;4.57;2.03;;;;;;;19.29;60.70;100081.63;1710620;82;21073;-69
2021/05/29 10:56:28;;;;;;;3.10;2.00;;;;;;;19.35;60.50;100071.63;1707332;82;21084;-70
2021/05/29 10:59:08;;;;;;;3.10;1.90;;;;;;;19.56;59.92;100072.22;1713378;82;21100;-69
2021/05/29 11:01:42;;;;;;;5.67;2.03;;;;;;;19.73;59.14;100065.91;1709082;82;21115;-69
2021/05/29 11:04:24;;;;;;;2.63;1.90;;;;;;;19.88;57.62;100070.18;1705109;82;21289;-69
2021/05/29 11:06:58;;;;;;;4.47;2.17;;;;;;;19.99;57.35;100064.35;1704403;82;21053;-69
2021/05/29 11:09:34;;;;;;;3.50;2.00;;;;;;;20.03;57.38;100078.82;1711916;82;21137;-70
2021/05/29 11:12:02;;;;;;;5.60;2.20;;;;;;;19.97;57.66;100089.06;1705985;82;21691;-69
2021/05/29 11:14:49;;;;;;;4.20;2.20;;;;;;;19.86;57.16;100073.77;1702492;82;21120;-68
2021/05/29 11:17:26;;;;;;;2.97;1.77;;;;;;;19.82;57.31;100072.06;1706462;83;21416;-69
2021/05/29 11:20:15;;;;;;;3.53;2.10;;;;;;;19.88;57.67;100075.59;1708123;82;21089;-70
2021/05/29 11:22:50;;;;;;;3.43;2.00;;;;;;;20.01;57.00;100071.03;1708522;82;21049;-69
2021/05/29 11:25:20;;;;;;;5.40;2.10;;;;;;;20.17;55.98;100072.58;1708962;83;21108;-70
2021/05/29 11:27:47;;;;;;;3.13;2.00;;;;;;;20.32;55.85;100075.22;1684909;82;21144;-70
2021/05/29 11:30:23;;;;;;;3.40;1.90;;;;;;;20.42;55.13;100070.72;1712255;82;21246;-70
2021/05/29 11:35:47;;;;;;;2.85;1.90;;;;;;;20.48;53.94;100065.89;1712046;82;21088;-69
2021/05/29 11:38:34;;;;;;;3.30;1.70;;;;;;;20.50;54.11;100068.50;1688973;82;21661;-69
2021/05/29 11:41:11;;;;;;;2.47;1.80;;;;;;;20.54;54.03;100072.16;1711006;82;21195;-69
2021/05/29 11:43:48;;;;;;;3.30;1.90;;;;;;;20.69;53.77;100082.13;1689316;83;21631;-70
2021/05/29 11:46:23;;;;;;;3.20;1.67;;;;;;;20.75;52.24;100069.92;1710818;82;21132;-69
2021/05/29 11:49:06;;;;;;;4.90;1.73;;;;;;;20.74;52.63;100092.20;1696310;82;21152;-70
2021/05/29 11:51:38;;;;;;;3.13;1.67;;;;;;;20.69;51.70;100078.05;1707255;82;21116;-71
2021/05/29 11:54:15;;;;;;;3.00;1.80;;;;;;;20.56;52.20;100082.66;1709900;82;21094;-71
2021/05/29 11:56:46;;;;;;;4.20;1.60;;;;;;;20.47;52.16;100073.80;1711164;82;21159;-69